sensor_id;sensor_type;location;lat;lon;timestamp;pressure;altitude;pressure_sealevel;temperature;humidity
45789;BME280;31492;54.856;26.318;2022-11-14T01:28:58;1014.7;;;5.6;100
45789;BME280;31492;54.856;26.318;2022-11-14T01:33:58;1014.6;;;5;100
45789;BME280;31492;54.856;26.318;2022-11-14T01:38:58;1014.6;;;4.9;100
45789;BME280;31492;54.856;26.318;2022-11-14T01:44:11;1014.6;;;4.8;100
45789;BME280;31492;54.856;26.318;2022-11-14T01:49:25;1014.6;;;4.9;100
45789;BME280;31492;54.856;26.318;2022-11-14T01:54:35;1014.6;;;4.9;100
45789;BME280;31492;54.856;26.318;2022-11-14T01:59:31;1014.6;;;4.9;100
45789;BME280;31492;54.856;26.318;2022-11-14T02:03:58;1014.5;;;4.9;100
45789;BME280;31492;54.856;26.318;2022-11-14T02:09:12;1014.5;;;4.8;100
45789;BME280;31492;54.856;26.318;2022-11-14T02:13:58;1014.5;;;4.7;100
45789;BME280;31492;54.856;26.318;2022-11-14T02:19:13;1014.5;;;4.8;100
45789;BME280;31492;54.856;26.318;2022-11-14T02:24:08;1014.5;;;4.9;100
45789;BME280;31492;54.856;26.318;2022-11-14T02:29:34;1014.5;;;4.9;100
45789;BME280;31492;54.856;26.318;2022-11-14T02:33:58;1014.5;;;4.9;100
45789;BME280;31492;54.856;26.318;2022-11-14T02:39:08;1014.5;;;4.9;100
45789;BME280;31492;54.856;26.318;2022-11-14T02:43:58;1014.5;;;4.8;100
45789;BME280;31492;54.856;26.318;2022-11-14T02:48:58;1014.5;;;4.6;100
45789;BME280;31492;54.856;26.318;2022-11-14T02:54:22;1014.4;;;4.5;100
45789;BME280;31492;54.856;26.318;2022-11-14T02:58:58;1014.3;;;4.4;100
45789;BME280;31492;54.856;26.318;2022-11-14T03:04:08;1014.3;;;4.4;100
45789;BME280;31492;54.856;26.318;2022-11-14T03:09:12;1014.2;;;4.4;100
45789;BME280;31492;54.856;26.318;2022-11-14T03:13:58;1014.2;;;4.5;100
45789;BME280;31492;54.856;26.318;2022-11-14T03:19:08;1014.2;;;4.4;100
45789;BME280;31492;54.856;26.318;2022-11-14T03:23:58;1014.3;;;4.5;100
45789;BME280;31492;54.856;26.318;2022-11-14T03:29:10;1014.3;;;4.5;100
45789;BME280;31492;54.856;26.318;2022-11-14T03:33:58;1014.2;;;4.6;100
45789;BME280;31492;54.856;26.318;2022-11-14T03:39:18;1014.1;;;4.6;100
45789;BME280;31492;54.856;26.318;2022-11-14T03:43:58;1014.1;;;4.6;100
45789;BME280;31492;54.856;26.318;2022-11-14T03:49:34;1014.1;;;4.3;100
45789;BME280;31492;54.856;26.318;2022-11-14T03:54:08;1014.2;;;4.3;100
45789;BME280;31492;54.856;26.318;2022-11-14T03:59:22;1014.2;;;4.5;100
45789;BME280;31492;54.856;26.318;2022-11-14T04:04:10;1014.3;;;4.4;100
45789;BME280;31492;54.856;26.318;2022-11-14T04:09:06;1014.3;;;4.4;100
45789;BME280;31492;54.856;26.318;2022-11-14T04:14:36;1014.3;;;4.3;100
45789;BME280;31492;54.856;26.318;2022-11-14T04:18:58;1014.3;;;4.3;100
45789;BME280;31492;54.856;26.318;2022-11-14T04:23:58;1014.3;;;4.3;100
45789;BME280;31492;54.856;26.318;2022-11-14T04:29:10;1014.3;;;4.2;100
45789;BME280;31492;54.856;26.318;2022-11-14T04:34:34;1014.2;;;4.1;100
45789;BME280;31492;54.856;26.318;2022-11-14T04:38:59;1014.2;;;4;100
45789;BME280;31492;54.856;26.318;2022-11-14T04:44:18;1014.3;;;3.9;100
45789;BME280;31492;54.856;26.318;2022-11-14T04:48:58;1014.4;;;4;100
45789;BME280;31492;54.856;26.318;2022-11-14T04:54:10;1014.4;;;4.1;100
45789;BME280;31492;54.856;26.318;2022-11-14T04:58:58;1014.4;;;4;100
45789;BME280;31492;54.856;26.318;2022-11-14T05:04:08;1014.4;;;3.9;100
45789;BME280;31492;54.856;26.318;2022-11-14T05:09:10;1014.5;;;3.8;100
45789;BME280;31492;54.856;26.318;2022-11-14T05:14:39;1014.5;;;4;100
45789;BME280;31492;54.856;26.318;2022-11-14T05:18:58;1014.5;;;3.9;100
45789;BME280;31492;54.856;26.318;2022-11-14T05:23:58;1014.5;;;3.5;100
45789;BME280;31492;54.856;26.318;2022-11-14T05:29:06;1014.5;;;3.4;100
45789;BME280;31492;54.856;26.318;2022-11-14T05:33:58;1014.5;;;3.6;100
45789;BME280;31492;54.856;26.318;2022-11-14T05:39:12;1014.5;;;3.8;100
45789;BME280;31492;54.856;26.318;2022-11-14T05:43:58;1014.5;;;3.8;100
45789;BME280;31492;54.856;26.318;2022-11-14T05:48:58;1014.5;;;3.9;100
45789;BME280;31492;54.856;26.318;2022-11-14T05:53:58;1014.5;;;3.9;100
45789;BME280;31492;54.856;26.318;2022-11-14T05:59:06;1014.6;;;3.9;100
45789;BME280;31492;54.856;26.318;2022-11-14T06:04:12;1014.5;;;3.9;100
45789;BME280;31492;54.856;26.318;2022-11-14T06:09:20;1014.6;;;4;100
45789;BME280;31492;54.856;26.318;2022-11-14T06:13:58;1014.6;;;3.9;100
45789;BME280;31492;54.856;26.318;2022-11-14T06:19:14;1014.6;;;3.9;100
45789;BME280;31492;54.856;26.318;2022-11-14T06:23:58;1014.6;;;4.1;100
45789;BME280;31492;54.856;26.318;2022-11-14T06:29:12;1014.6;;;4.1;100
45789;BME280;31492;54.856;26.318;2022-11-14T06:34:10;1014.6;;;4.1;100
45789;BME280;31492;54.856;26.318;2022-11-14T06:39:22;1014.6;;;4;100
45789;BME280;31492;54.856;26.318;2022-11-14T06:44:08;1014.6;;;4.1;100
45789;BME280;31492;54.856;26.318;2022-11-14T06:49:38;1014.6;;;4.2;100
45789;BME280;31492;54.856;26.318;2022-11-14T06:54:38;1014.6;;;4.1;100
45789;BME280;31492;54.856;26.318;2022-11-14T06:59:24;1014.5;;;4.3;100
45789;BME280;31492;54.856;26.318;2022-11-14T07:03:58;1014.5;;;4.3;100
45789;BME280;31492;54.856;26.318;2022-11-14T07:08:58;1014.5;;;4.3;100
45789;BME280;31492;54.856;26.318;2022-11-14T07:14:08;1014.6;;;4.3;100
45789;BME280;31492;54.856;26.318;2022-11-14T07:18:58;1014.6;;;4.3;100
45789;BME280;31492;54.856;26.318;2022-11-14T07:24:08;1014.6;;;4.3;100
45789;BME280;31492;54.856;26.318;2022-11-14T07:29:10;1014.6;;;4.3;100
45789;BME280;31492;54.856;26.318;2022-11-14T07:33:58;1014.6;;;4.3;100
45789;BME280;31492;54.856;26.318;2022-11-14T07:39:08;1014.6;;;4.3;100
45789;BME280;31492;54.856;26.318;2022-11-14T07:43:58;1014.6;;;4.3;100
45789;BME280;31492;54.856;26.318;2022-11-14T07:48:58;1014.6;;;4.4;100
45789;BME280;31492;54.856;26.318;2022-11-14T07:54:16;1014.6;;;4.3;100
45789;BME280;31492;54.856;26.318;2022-11-14T07:58:58;1014.6;;;4.3;100
45789;BME280;31492;54.856;26.318;2022-11-14T08:04:06;1014.6;;;4.4;100
45789;BME280;31492;54.856;26.318;2022-11-14T08:09:24;1014.5;;;4.4;100
45789;BME280;31492;54.856;26.318;2022-11-14T08:13:58;1014.5;;;4.5;100
45789;BME280;31492;54.856;26.318;2022-11-14T08:19:48;1014.4;;;4.5;100
45789;BME280;31492;54.856;26.318;2022-11-14T08:23:58;1014.5;;;4.4;100
45789;BME280;31492;54.856;26.318;2022-11-14T08:29:08;1014.5;;;4.5;100
45789;BME280;31492;54.856;26.318;2022-11-14T08:34:08;1014.5;;;4.5;100
45789;BME280;31492;54.856;26.318;2022-11-14T08:39:06;1014.4;;;4.6;100
45789;BME280;31492;54.856;26.318;2022-11-14T08:43:58;1014.5;;;4.5;100
45789;BME280;31492;54.856;26.318;2022-11-14T08:49:08;1014.5;;;4.5;100
45789;BME280;31492;54.856;26.318;2022-11-14T08:53:58;1014.5;;;4.6;100
45789;BME280;31492;54.856;26.318;2022-11-14T08:59:12;1014.4;;;4.4;100
45789;BME280;31492;54.856;26.318;2022-11-14T09:04:18;1014.4;;;4.5;100
45789;BME280;31492;54.856;26.318;2022-11-14T09:09:16;1014.4;;;4.5;100
45789;BME280;31492;54.856;26.318;2022-11-14T09:13:58;1014.4;;;4.6;100
45789;BME280;31492;54.856;26.318;2022-11-14T09:19:24;1014.4;;;4.5;100
45789;BME280;31492;54.856;26.318;2022-11-14T09:23:58;1014.3;;;4.5;100
45789;BME280;31492;54.856;26.318;2022-11-14T09:29:22;1014.3;;;4.6;100
45789;BME280;31492;54.856;26.318;2022-11-14T09:34:18;1014.3;;;4.4;100
45789;BME280;31492;54.856;26.318;2022-11-14T09:39:08;1014.2;;;4.6;100
45789;BME280;31492;54.856;26.318;2022-11-14T09:44:26;1014.2;;;4.6;100
45789;BME280;31492;54.856;26.318;2022-11-14T09:49:22;1014.1;;;4.6;100
45789;BME280;31492;54.856;26.318;2022-11-14T09:54:00;1014;;;4.7;100
45789;BME280;31492;54.856;26.318;2022-11-14T09:59:20;1013.9;;;4.7;100
45789;BME280;31492;54.856;26.318;2022-11-14T10:04:00;1013.9;;;4.9;100
45789;BME280;31492;54.856;26.318;2022-11-14T10:09:30;1013.8;;;5;100
45789;BME280;31492;54.856;26.318;2022-11-14T10:14:28;1013.8;;;5.2;100
45789;BME280;31492;54.856;26.318;2022-11-14T10:19:02;1013.8;;;5.2;100
45789;BME280;31492;54.856;26.318;2022-11-14T10:24:00;1013.7;;;5.2;100
45789;BME280;31492;54.856;26.318;2022-11-14T10:29:03;1013.7;;;5.3;100
45789;BME280;31492;54.856;26.318;2022-11-14T10:34:24;1013.6;;;5.3;100
45789;BME280;31492;54.856;26.318;2022-11-14T10:39:14;1013.5;;;5.4;100
45789;BME280;31492;54.856;26.318;2022-11-14T10:43:58;1013.5;;;5.4;100
45789;BME280;31492;54.856;26.318;2022-11-14T10:49:14;1013.4;;;5.4;100
45789;BME280;31492;54.856;26.318;2022-11-14T10:54:12;1013.4;;;5.3;100
45789;BME280;31492;54.856;26.318;2022-11-14T10:58:58;1013.4;;;5.5;100
45789;BME280;31492;54.856;26.318;2022-11-14T11:04:00;1013.3;;;5.6;100
45789;BME280;31492;54.856;26.318;2022-11-14T11:08:58;1013.2;;;5.5;100
45789;BME280;31492;54.856;26.318;2022-11-14T11:13:59;1013.2;;;5.4;100
45789;BME280;31492;54.856;26.318;2022-11-14T11:19:12;1013.2;;;5.3;100
45789;BME280;31492;54.856;26.318;2022-11-14T11:24:30;1013.1;;;5.3;100
45789;BME280;31492;54.856;26.318;2022-11-14T11:29:00;1013.1;;;5.3;100
45789;BME280;31492;54.856;26.318;2022-11-14T11:34:12;1013;;;5.3;100
45789;BME280;31492;54.856;26.318;2022-11-14T11:38:58;1013;;;5.4;100
45789;BME280;31492;54.856;26.318;2022-11-14T11:44:13;1013;;;5.5;100
45789;BME280;31492;54.856;26.318;2022-11-14T11:49:00;1012.9;;;5.5;100
45789;BME280;31492;54.856;26.318;2022-11-14T11:54:43;1012.8;;;5.5;100
45789;BME280;31492;54.856;26.318;2022-11-14T11:59:16;1012.8;;;5.4;100
45789;BME280;31492;54.856;26.318;2022-11-14T12:04:18;1012.8;;;5.4;100
45789;BME280;31492;54.856;26.318;2022-11-14T12:09:01;1012.8;;;5.3;100
45789;BME280;31492;54.856;26.318;2022-11-14T12:14:03;1012.8;;;5.2;100
45789;BME280;31492;54.856;26.318;2022-11-14T12:24:11;1012.8;;;4.9;100
45789;BME280;31492;54.856;26.318;2022-11-14T12:29:10;1012.8;;;4.8;100
45789;BME280;31492;54.856;26.318;2022-11-14T12:34:17;1012.7;;;4.9;100
45789;BME280;31492;54.856;26.318;2022-11-14T12:39:18;1012.7;;;4.9;100
45789;BME280;31492;54.856;26.318;2022-11-14T12:44:15;1012.7;;;4.8;100
45789;BME280;31492;54.856;26.318;2022-11-14T12:48:58;1012.6;;;4.7;100
45789;BME280;31492;54.856;26.318;2022-11-14T12:54:20;1012.6;;;4.6;100
45789;BME280;31492;54.856;26.318;2022-11-14T12:59:04;1012.6;;;4.5;100
45789;BME280;31492;54.856;26.318;2022-11-14T13:04:03;1012.5;;;4.4;100
45789;BME280;31492;54.856;26.318;2022-11-14T13:14:12;1012.4;;;4.2;100
45789;BME280;31492;54.856;26.318;2022-11-14T13:19:00;1012.5;;;4.1;100
45789;BME280;31492;54.856;26.318;2022-11-14T13:23:59;1012.5;;;4.1;100
45789;BME280;31492;54.856;26.318;2022-11-14T13:28:58;1012.5;;;4;100
45789;BME280;31492;54.856;26.318;2022-11-14T13:33:58;1012.5;;;4.1;100
45789;BME280;31492;54.856;26.318;2022-11-14T13:39:03;1012.5;;;4;100
45789;BME280;31492;54.856;26.318;2022-11-14T13:44:12;1012.4;;;4.1;100
45789;BME280;31492;54.856;26.318;2022-11-14T13:49:09;1012.4;;;4.1;100
45789;BME280;31492;54.856;26.318;2022-11-14T13:54:09;1012.3;;;4.1;100
45789;BME280;31492;54.856;26.318;2022-11-14T13:59:15;1012.2;;;4.1;100
45789;BME280;31492;54.856;26.318;2022-11-14T14:04:03;1012.1;;;4.1;100
45789;BME280;31492;54.856;26.318;2022-11-14T14:09:03;1012.1;;;4;100
45789;BME280;31492;54.856;26.318;2022-11-14T14:14:00;1012.1;;;3.9;100
45789;BME280;31492;54.856;26.318;2022-11-14T14:19:00;1012;;;3.8;100
45789;BME280;31492;54.856;26.318;2022-11-14T14:24:14;1012;;;3.7;100
45789;BME280;31492;54.856;26.318;2022-11-14T14:29:15;1011.9;;;3.7;100
45789;BME280;31492;54.856;26.318;2022-11-14T14:33:58;1011.9;;;3.7;100
45789;BME280;31492;54.856;26.318;2022-11-14T14:39:10;1011.9;;;3.7;100
45789;BME280;31492;54.856;26.318;2022-11-14T14:44:16;1011.9;;;3.7;100
45789;BME280;31492;54.856;26.318;2022-11-14T14:49:15;1011.9;;;3.6;100
45789;BME280;31492;54.856;26.318;2022-11-14T14:53:58;1011.8;;;3.6;100
45789;BME280;31492;54.856;26.318;2022-11-14T14:58:58;1011.8;;;3.7;100
45789;BME280;31492;54.856;26.318;2022-11-14T15:04:19;1011.8;;;3.8;100
45789;BME280;31492;54.856;26.318;2022-11-14T15:09:15;1011.8;;;3.7;100
45789;BME280;31492;54.856;26.318;2022-11-14T15:13:58;1011.8;;;3.6;100
45789;BME280;31492;54.856;26.318;2022-11-14T15:18:58;1011.8;;;3.6;100
45789;BME280;31492;54.856;26.318;2022-11-14T15:23:59;1011.7;;;3.6;100
45789;BME280;31492;54.856;26.318;2022-11-14T15:29:03;1011.6;;;3.6;100
45789;BME280;31492;54.856;26.318;2022-11-14T15:33:59;1011.5;;;3.6;100
45789;BME280;31492;54.856;26.318;2022-11-14T15:39:20;1011.4;;;3.6;100
45789;BME280;31492;54.856;26.318;2022-11-14T15:43:58;1011.3;;;3.6;100
45789;BME280;31492;54.856;26.318;2022-11-14T15:49:07;1011.4;;;3.6;100
45789;BME280;31492;54.856;26.318;2022-11-14T15:54:25;1011.3;;;3.5;100
45789;BME280;31492;54.856;26.318;2022-11-14T15:59:23;1011.3;;;3.6;100
45789;BME280;31492;54.856;26.318;2022-11-14T16:03:58;1011.3;;;3.6;100
45789;BME280;31492;54.856;26.318;2022-11-14T16:08:58;1011.2;;;3.6;100
45789;BME280;31492;54.856;26.318;2022-11-14T16:13:58;1011.1;;;3.5;100
45789;BME280;31492;54.856;26.318;2022-11-14T16:18:58;1011;;;3.6;100
45789;BME280;31492;54.856;26.318;2022-11-14T16:23:58;1011;;;3.5;100
45789;BME280;31492;54.856;26.318;2022-11-14T16:29:10;1011;;;3.6;100
45789;BME280;31492;54.856;26.318;2022-11-14T16:34:26;1010.9;;;3.7;100
45789;BME280;31492;54.856;26.318;2022-11-14T16:38:59;1010.8;;;3.7;100
45789;BME280;31492;54.856;26.318;2022-11-14T16:43:58;1010.8;;;3.6;100
45789;BME280;31492;54.856;26.318;2022-11-14T16:49:11;1010.8;;;3.6;100
45789;BME280;31492;54.856;26.318;2022-11-14T16:53:58;1010.7;;;3.5;100
45789;BME280;31492;54.856;26.318;2022-11-14T16:58:58;1010.7;;;3.5;100
45789;BME280;31492;54.856;26.318;2022-11-14T17:04:06;1010.7;;;3.6;100
45789;BME280;31492;54.856;26.318;2022-11-14T17:08:58;1010.7;;;3.6;100
45789;BME280;31492;54.856;26.318;2022-11-14T17:13:58;1010.6;;;3.5;100
45789;BME280;31492;54.856;26.318;2022-11-14T17:19:10;1010.5;;;3.6;100
45789;BME280;31492;54.856;26.318;2022-11-14T17:23:59;1010.4;;;3.5;100
45789;BME280;31492;54.856;26.318;2022-11-14T17:28:58;1010.3;;;3.4;100
45789;BME280;31492;54.856;26.318;2022-11-14T17:33:58;1010.2;;;3.4;100
45789;BME280;31492;54.856;26.318;2022-11-14T17:38:58;1010.2;;;3.4;100
45789;BME280;31492;54.856;26.318;2022-11-14T17:43:58;1010.2;;;3.5;100
45789;BME280;31492;54.856;26.318;2022-11-14T17:49:26;1010.2;;;3.4;100
45789;BME280;31492;54.856;26.318;2022-11-14T17:54:06;1010.1;;;3.5;100
45789;BME280;31492;54.856;26.318;2022-11-14T17:58:58;1010.1;;;3.5;100
45789;BME280;31492;54.856;26.318;2022-11-14T18:03:58;1010.1;;;3.6;100
45789;BME280;31492;54.856;26.318;2022-11-14T18:09:10;1010.1;;;3.5;100
45789;BME280;31492;54.856;26.318;2022-11-14T18:14:20;1010;;;3.4;100
45789;BME280;31492;54.856;26.318;2022-11-14T18:19:06;1010;;;3.4;100
45789;BME280;31492;54.856;26.318;2022-11-14T18:24:09;1010;;;3.3;100
45789;BME280;31492;54.856;26.318;2022-11-14T18:29:24;1010;;;3.3;100
45789;BME280;31492;54.856;26.318;2022-11-14T18:33:58;1009.9;;;3.3;100
45789;BME280;31492;54.856;26.318;2022-11-14T18:39:10;1009.8;;;3.2;100
45789;BME280;31492;54.856;26.318;2022-11-14T18:43:58;1009.7;;;3.1;100
45789;BME280;31492;54.856;26.318;2022-11-14T18:49:09;1009.7;;;3.2;100
45789;BME280;31492;54.856;26.318;2022-11-14T18:54:26;1009.6;;;3.2;100
45789;BME280;31492;54.856;26.318;2022-11-14T18:59:08;1009.6;;;3.1;100
45789;BME280;31492;54.856;26.318;2022-11-14T19:04:11;1009.6;;;3.1;100
45789;BME280;31492;54.856;26.318;2022-11-14T19:09:28;1009.6;;;3.2;100
45789;BME280;31492;54.856;26.318;2022-11-14T19:13:59;1009.6;;;3.2;100
45789;BME280;31492;54.856;26.318;2022-11-14T19:19:14;1009.5;;;3.2;100
45789;BME280;31492;54.856;26.318;2022-11-14T19:24:15;1009.4;;;3.3;100
45789;BME280;31492;54.856;26.318;2022-11-14T19:29:00;1009.3;;;3.3;100
45789;BME280;31492;54.856;26.318;2022-11-14T19:33:59;1009.3;;;3.2;100
45789;BME280;31492;54.856;26.318;2022-11-14T19:39:08;1009.2;;;3.2;100
45789;BME280;31492;54.856;26.318;2022-11-14T19:44:14;1009.1;;;3.2;100
45789;BME280;31492;54.856;26.318;2022-11-14T19:49:20;1009.2;;;3.2;100
45789;BME280;31492;54.856;26.318;2022-11-14T19:54:10;1009.1;;;3.1;100
45789;BME280;31492;54.856;26.318;2022-11-14T19:58:59;1009;;;3.1;100
45789;BME280;31492;54.856;26.318;2022-11-14T20:03:59;1009;;;3;100
45789;BME280;31492;54.856;26.318;2022-11-14T20:09:14;1008.9;;;3;100
45789;BME280;31492;54.856;26.318;2022-11-14T20:13:59;1008.9;;;2.9;100
45789;BME280;31492;54.856;26.318;2022-11-14T20:18:59;1008.9;;;2.9;100
45789;BME280;31492;54.856;26.318;2022-11-14T20:24:08;1008.8;;;2.9;100
45789;BME280;31492;54.856;26.318;2022-11-14T20:28:58;1008.8;;;2.8;100
45789;BME280;31492;54.856;26.318;2022-11-14T20:33:58;1008.7;;;2.7;100
45789;BME280;31492;54.856;26.318;2022-11-14T20:38:58;1008.7;;;2.7;100
45789;BME280;31492;54.856;26.318;2022-11-14T20:43:59;1008.6;;;2.8;100
45789;BME280;31492;54.856;26.318;2022-11-14T20:48:58;1008.5;;;2.8;100
45789;BME280;31492;54.856;26.318;2022-11-14T20:53:58;1008.4;;;2.7;100
45789;BME280;31492;54.856;26.318;2022-11-14T20:59:14;1008.5;;;2.6;100
45789;BME280;31492;54.856;26.318;2022-11-14T21:04:14;1008.5;;;2.5;100
45789;BME280;31492;54.856;26.318;2022-11-14T21:09:10;1008.4;;;2.5;100
45789;BME280;31492;54.856;26.318;2022-11-14T21:14:09;1008.4;;;2.6;100
45789;BME280;31492;54.856;26.318;2022-11-14T21:19:08;1008.3;;;2.7;100
45789;BME280;31492;54.856;26.318;2022-11-14T21:23:58;1008.2;;;2.6;100
45789;BME280;31492;54.856;26.318;2022-11-14T21:28:59;1008.1;;;2.6;100
45789;BME280;31492;54.856;26.318;2022-11-14T21:33:59;1008;;;2.6;100
45789;BME280;31492;54.856;26.318;2022-11-14T21:39:18;1007.9;;;2.6;100
45789;BME280;31492;54.856;26.318;2022-11-14T21:44:11;1007.8;;;2.7;100
45789;BME280;31492;54.856;26.318;2022-11-14T21:48:58;1007.7;;;2.7;100
45789;BME280;31492;54.856;26.318;2022-11-14T21:53:58;1007.7;;;2.6;100
